createdAt,value
2023-09-12T03:01:18.243Z,99.90
2023-09-12T03:03:48.929Z,99.90
2023-09-12T03:06:19.466Z,99.90
2023-09-12T03:08:47.984Z,99.90
2023-09-12T03:11:15.913Z,99.90
2023-09-12T03:13:43.987Z,99.90
2023-09-12T03:16:12.361Z,99.90
2023-09-12T03:18:42.080Z,99.90
2023-09-12T03:21:12.522Z,99.90
2023-09-12T03:23:40.551Z,99.90
2023-09-12T03:26:09.664Z,99.90
2023-09-12T03:28:38.896Z,99.90
2023-09-12T03:31:09.714Z,99.90
2023-09-12T03:33:37.832Z,99.90
2023-09-12T03:36:08.515Z,99.90
2023-09-12T03:38:37.040Z,99.90
2023-09-12T03:41:05.044Z,99.90
2023-09-12T03:43:34.497Z,99.90
2023-09-12T03:46:04.421Z,99.90
2023-09-12T03:48:32.978Z,99.90
2023-09-12T03:51:02.052Z,99.90
2023-09-12T03:53:31.611Z,99.90
2023-09-12T03:56:00.608Z,99.90
2023-09-12T03:58:29.098Z,99.90
2023-09-12T04:00:56.990Z,99.90
2023-09-12T04:03:25.063Z,99.90
2023-09-12T04:05:53.616Z,99.90
2023-09-12T04:08:21.819Z,99.90
2023-09-12T04:10:51.285Z,99.90
2023-09-12T04:13:19.739Z,99.90
2023-09-12T04:15:47.785Z,99.90
2023-09-12T04:18:15.826Z,99.90
2023-09-12T04:20:43.859Z,99.90
2023-09-12T04:23:11.921Z,99.90
2023-09-12T04:25:39.896Z,99.90
2023-09-12T04:28:09.342Z,99.90
2023-09-12T04:30:37.475Z,99.90
2023-09-12T04:33:06.486Z,99.90
2023-09-12T04:35:36.700Z,99.90
2023-09-12T04:38:05.253Z,99.90
2023-09-12T04:40:33.190Z,99.90
2023-09-12T04:43:01.133Z,99.90
2023-09-12T04:45:34.651Z,99.90
2023-09-12T04:48:03.044Z,99.90
2023-09-12T04:50:30.961Z,99.90
2023-09-12T04:52:58.883Z,99.90
2023-09-12T04:55:26.788Z,99.90
2023-09-12T04:57:54.674Z,99.90
2023-09-12T05:00:22.669Z,99.90
2023-09-12T05:02:51.943Z,99.90
2023-09-12T05:05:19.897Z,99.90
2023-09-12T05:07:47.967Z,99.90
2023-09-12T05:10:15.988Z,99.90
2023-09-12T05:12:43.893Z,99.90
2023-09-12T05:15:12.160Z,99.90
2023-09-12T05:17:40.092Z,99.90
2023-09-12T05:20:10.931Z,99.90
2023-09-12T05:22:38.768Z,99.90
2023-09-12T05:25:07.445Z,99.90
2023-09-12T05:27:35.634Z,99.90
2023-09-12T05:30:04.122Z,99.90
2023-09-12T05:32:32.296Z,99.90
2023-09-12T05:35:14.957Z,99.90
2023-09-12T05:37:49.776Z,99.90
2023-09-12T05:40:17.744Z,99.90
2023-09-12T05:42:45.609Z,99.90
2023-09-12T05:45:13.763Z,99.90
2023-09-12T05:47:41.664Z,99.90
2023-09-12T05:50:09.884Z,99.90
2023-09-12T05:52:38.169Z,99.90
2023-09-12T05:55:08.053Z,99.90
2023-09-12T05:57:36.366Z,99.90
2023-09-12T06:00:11.273Z,99.90
2023-09-12T06:02:43.263Z,99.90
2023-09-12T06:05:11.279Z,99.90
2023-09-12T06:07:42.008Z,99.90
2023-09-12T06:10:12.047Z,99.90
2023-09-12T06:12:39.925Z,99.90
2023-09-12T06:15:08.705Z,99.90
2023-09-12T06:17:36.659Z,99.90
2023-09-12T06:20:07.424Z,99.90
2023-09-12T06:22:36.781Z,99.90
2023-09-12T06:25:05.104Z,99.90
2023-09-12T06:27:34.319Z,99.90
2023-09-12T06:30:02.260Z,99.90
2023-09-12T06:32:30.178Z,99.90
2023-09-12T06:34:58.065Z,99.90
2023-09-12T06:37:25.909Z,99.90
2023-09-12T06:39:53.820Z,99.90
2023-09-12T06:42:21.664Z,99.90
2023-09-12T06:44:50.910Z,99.90
2023-09-12T06:47:18.803Z,99.90
2023-09-12T06:49:50.390Z,99.90
2023-09-12T06:52:20.664Z,99.90
2023-09-12T06:54:48.630Z,99.90
2023-09-12T06:57:16.541Z,99.90
2023-09-12T06:59:44.404Z,99.90
2023-09-12T07:02:14.222Z,99.90
2023-09-12T07:04:42.220Z,99.90
2023-09-12T07:07:10.035Z,99.90
2023-09-12T07:09:37.890Z,99.90
2023-09-12T07:12:06.782Z,99.90
2023-09-12T07:14:34.711Z,99.90
2023-09-12T07:17:02.546Z,99.90
2023-09-12T07:19:32.203Z,99.90
2023-09-12T07:22:00.275Z,99.90
2023-09-12T07:24:28.685Z,99.90
2023-09-12T07:26:56.638Z,99.90
2023-09-12T07:29:24.475Z,99.90
2023-09-12T07:31:54.332Z,99.90
2023-09-12T07:34:22.762Z,99.90
2023-09-12T07:36:52.668Z,99.90
2023-09-12T07:39:20.556Z,99.90
2023-09-12T07:41:48.594Z,99.90
2023-09-12T07:44:17.652Z,99.90
2023-09-12T07:46:45.591Z,99.90
2023-09-12T07:49:13.444Z,99.90
2023-09-12T07:51:41.325Z,99.90
2023-09-12T07:54:10.814Z,99.90
2023-09-12T07:56:38.652Z,99.90
2023-09-12T07:59:06.452Z,99.90
2023-09-12T08:01:34.365Z,99.90
2023-09-12T08:04:02.261Z,99.90
2023-09-12T08:06:35.802Z,99.90
2023-09-12T08:09:13.324Z,99.90
2023-09-12T08:11:41.176Z,99.90
2023-09-12T08:14:08.992Z,99.90
2023-09-12T08:16:36.936Z,99.90
2023-09-12T08:19:04.846Z,99.90
2023-09-12T08:21:32.756Z,99.90
2023-09-12T08:24:00.665Z,99.90
2023-09-12T08:26:30.842Z,99.90
2023-09-12T08:29:00.454Z,99.90
2023-09-12T08:31:28.439Z,99.90
2023-09-12T08:33:56.344Z,99.90
2023-09-12T08:36:24.247Z,99.90
2023-09-12T08:38:52.079Z,99.90
2023-09-12T08:41:19.941Z,99.90
2023-09-12T08:43:50.195Z,99.90
2023-09-12T08:46:19.306Z,99.90
2023-09-12T08:48:49.035Z,99.90
2023-09-12T08:51:17.033Z,99.90
2023-09-12T08:53:45.186Z,99.90
2023-09-12T08:56:13.744Z,99.90
2023-09-12T08:58:42.173Z,99.90
2023-09-12T09:01:14.083Z,99.90
2023-09-12T09:03:44.655Z,99.90
2023-09-12T09:06:13.710Z,99.90
2023-09-12T09:08:42.680Z,99.90
2023-09-12T09:11:11.905Z,99.90
2023-09-12T09:13:39.772Z,99.90
2023-09-12T09:16:16.776Z,99.90
2023-09-12T09:18:55.221Z,99.90
2023-09-12T09:21:25.471Z,99.90
2023-09-12T09:23:54.126Z,99.90
2023-09-12T09:26:22.330Z,99.90
2023-09-12T09:29:05.076Z,99.90
2023-09-12T09:31:35.316Z,99.90
2023-09-12T09:34:04.916Z,99.90
2023-09-12T09:36:34.277Z,99.90
2023-09-12T09:39:05.731Z,99.90
2023-09-12T09:41:33.932Z,99.90
2023-09-12T09:44:01.978Z,99.90
2023-09-12T09:46:29.894Z,99.90
2023-09-12T09:49:00.227Z,99.90
2023-09-12T09:51:28.412Z,99.90
2023-09-12T09:53:59.069Z,99.90
2023-09-12T09:56:27.765Z,99.90
2023-09-12T09:58:57.573Z,99.90
2023-09-12T10:01:28.895Z,99.90
2023-09-12T10:04:02.244Z,99.90
2023-09-12T10:06:31.682Z,99.90
2023-09-12T10:09:01.039Z,99.90
2023-09-12T10:11:32.303Z,99.90
2023-09-12T10:14:05.033Z,99.90
2023-09-12T10:16:34.419Z,99.90
2023-09-12T10:19:15.780Z,99.90
2023-09-12T10:21:49.059Z,99.90
2023-09-12T10:24:17.647Z,99.90
2023-09-12T10:26:46.304Z,99.90
2023-09-12T10:29:16.235Z,99.90
2023-09-12T10:31:44.631Z,99.90
2023-09-12T10:34:18.730Z,99.90
2023-09-12T10:36:48.785Z,99.90
2023-09-12T10:39:17.547Z,99.90
2023-09-12T10:41:45.402Z,99.90
2023-09-12T10:44:17.048Z,99.90
2023-09-12T10:46:47.053Z,99.90
2023-09-12T10:49:18.003Z,99.90
2023-09-12T10:51:47.581Z,99.90
2023-09-12T10:54:16.964Z,99.90
2023-09-12T10:56:45.830Z,99.90
2023-09-12T10:59:15.129Z,99.90
2023-09-12T11:01:46.585Z,99.90
2023-09-12T11:04:36.108Z,99.90
2023-09-12T11:07:24.279Z,99.90
2023-09-12T11:10:19.653Z,99.90
2023-09-12T11:12:49.619Z,99.90
2023-09-12T11:15:18.265Z,99.90
2023-09-12T11:17:47.534Z,99.90
2023-09-12T11:20:18.567Z,99.90
2023-09-12T11:22:47.333Z,99.90
2023-09-12T11:25:20.100Z,99.90
2023-09-12T11:28:04.716Z,99.90
2023-09-12T11:30:32.997Z,99.90
2023-09-12T11:33:02.135Z,99.90
2023-09-12T11:35:31.643Z,99.90
2023-09-12T11:38:01.933Z,99.90
2023-09-12T11:40:45.827Z,99.90
2023-09-12T11:43:22.877Z,99.90
2023-09-12T11:45:52.631Z,99.90
2023-09-12T11:48:21.255Z,99.90
2023-09-12T11:50:55.076Z,99.90
2023-09-12T11:53:26.445Z,99.90
2023-09-12T11:55:58.338Z,99.90
2023-09-12T11:58:28.128Z,99.90
2023-09-12T12:00:58.008Z,99.90
2023-09-12T12:03:28.145Z,99.90
2023-09-12T12:05:58.673Z,99.90
2023-09-12T12:08:32.021Z,99.90
2023-09-12T12:11:01.460Z,99.90
2023-09-12T12:13:30.402Z,99.90
2023-09-12T12:15:58.942Z,99.90
2023-09-12T12:18:28.179Z,99.90
2023-09-12T12:20:57.715Z,99.90
2023-09-12T12:23:25.762Z,99.90
2023-09-12T12:25:53.582Z,99.90
2023-09-12T12:28:23.050Z,99.90
2023-09-12T12:30:55.090Z,99.90
2023-09-12T12:33:53.716Z,99.90
2023-09-12T12:36:12.437Z,99.90
2023-09-12T12:38:51.745Z,99.90
2023-09-12T12:41:28.021Z,99.90
2023-09-12T12:44:03.563Z,99.90
2023-09-12T12:46:32.134Z,99.90
2023-09-12T12:49:00.210Z,99.90
2023-09-12T12:51:31.422Z,99.90
2023-09-12T12:54:06.903Z,99.90
2023-09-12T12:56:35.425Z,99.90
2023-09-12T12:59:07.639Z,99.90
2023-09-12T13:01:36.115Z,99.90
2023-09-12T13:04:04.206Z,99.90
2023-09-12T13:06:36.864Z,99.90
2023-09-12T13:09:06.943Z,99.90
2023-09-12T13:11:35.757Z,99.90
2023-09-12T13:14:04.533Z,99.90
2023-09-12T13:16:32.420Z,99.90
2023-09-12T13:19:00.382Z,99.90
2023-09-12T13:21:29.236Z,99.90
2023-09-12T13:23:59.852Z,99.90
2023-09-12T13:26:29.846Z,99.90
2023-09-12T13:28:58.319Z,99.40
2023-09-12T13:31:26.516Z,99.20
2023-09-12T13:33:54.612Z,98.70
2023-09-12T13:36:22.538Z,98.70
2023-09-12T13:38:52.471Z,98.10
2023-09-12T13:41:23.259Z,98.30
2023-09-12T13:43:51.073Z,98.50
2023-09-12T13:46:19.001Z,97.90
2023-09-12T13:48:47.754Z,97.70
2023-09-12T13:51:16.854Z,94.20
2023-09-12T13:53:45.488Z,93.00
2023-09-12T13:56:13.527Z,90.20
2023-09-12T13:58:45.169Z,83.90
2023-09-12T14:01:21.782Z,79.60
2023-09-12T14:03:56.998Z,77.20
2023-09-12T14:06:25.269Z,73.20
2023-09-12T14:08:54.778Z,70.90
2023-09-12T14:11:31.471Z,69.70
2023-09-12T14:14:13.963Z,68.10
2023-09-12T14:16:47.996Z,66.30
2023-09-12T14:19:17.495Z,65.50
2023-09-12T14:21:47.000Z,64.60
2023-09-12T14:24:15.889Z,63.20
2023-09-12T14:26:44.917Z,64.00
2023-09-12T14:29:15.231Z,63.40
2023-09-12T14:31:51.569Z,62.50
2023-09-12T14:34:19.705Z,62.90
2023-09-12T14:36:48.552Z,62.60
2023-09-12T14:39:16.980Z,62.80
2023-09-12T14:41:50.668Z,62.70
2023-09-12T14:44:19.969Z,62.80
2023-09-12T14:46:47.961Z,62.50
2023-09-12T14:49:16.292Z,62.30
2023-09-12T14:51:44.156Z,62.20
2023-09-12T14:54:12.098Z,62.50
2023-09-12T14:56:39.946Z,62.30
2023-09-12T14:59:08.048Z,63.40
2023-09-12T15:01:37.408Z,63.90
2023-09-12T15:04:05.643Z,65.70
2023-09-12T15:06:34.497Z,66.20
2023-09-12T15:09:03.412Z,66.90
2023-09-12T15:11:32.398Z,66.30
2023-09-12T15:14:00.546Z,66.80
2023-09-12T15:16:28.503Z,66.30
2023-09-12T15:18:57.726Z,65.80
2023-09-12T15:21:25.655Z,64.70
2023-09-12T15:23:54.679Z,65.00
2023-09-12T15:26:23.136Z,65.10
2023-09-12T15:28:50.993Z,66.20
2023-09-12T15:31:19.173Z,66.90
2023-09-12T15:33:47.568Z,68.20
2023-09-12T15:36:16.923Z,69.80
2023-09-12T15:38:44.812Z,70.50
2023-09-12T15:41:14.411Z,71.30
2023-09-12T15:43:42.377Z,73.10
2023-09-12T15:46:10.345Z,73.40
2023-09-12T15:48:38.395Z,75.10
2023-09-12T15:51:06.781Z,77.00
2023-09-12T15:53:36.006Z,80.30
2023-09-12T15:56:04.011Z,83.10
2023-09-12T15:58:32.024Z,85.00
2023-09-12T16:01:01.023Z,86.80
2023-09-12T16:03:29.209Z,88.40
2023-09-12T16:05:57.140Z,89.40
2023-09-12T16:08:25.130Z,90.30
2023-09-12T16:10:54.314Z,90.70
2023-09-12T16:13:22.178Z,90.70
2023-09-12T16:15:50.152Z,91.00
2023-09-12T16:18:18.141Z,91.20
2023-09-12T16:20:46.225Z,91.60
2023-09-12T16:23:14.140Z,91.80
2023-09-12T16:25:42.086Z,91.90
2023-09-12T16:28:11.358Z,92.30
2023-09-12T16:30:40.156Z,92.70
2023-09-12T16:33:08.680Z,92.90
2023-09-12T16:35:36.657Z,93.40
2023-09-12T16:38:04.862Z,93.60
2023-09-12T16:40:33.514Z,93.40
2023-09-12T16:43:02.090Z,93.60
2023-09-12T16:45:31.556Z,93.90
2023-09-12T16:47:59.668Z,94.00
2023-09-12T16:50:28.168Z,93.70
2023-09-12T16:52:56.184Z,93.90
2023-09-12T16:55:26.015Z,93.80
2023-09-12T16:57:54.103Z,93.90
2023-09-12T17:00:22.245Z,94.00
2023-09-12T17:02:51.508Z,94.20
2023-09-12T17:05:19.616Z,94.50
2023-09-12T17:07:47.614Z,94.70
2023-09-12T17:10:15.566Z,95.10
2023-09-12T17:12:45.016Z,95.40
2023-09-12T17:15:13.511Z,95.80
2023-09-12T17:17:41.912Z,96.20
2023-09-12T17:20:12.881Z,96.50
2023-09-12T17:22:41.036Z,96.80
2023-09-12T17:25:09.969Z,97.30
2023-09-12T17:27:38.968Z,97.60
2023-09-12T17:30:08.981Z,98.00
2023-09-12T17:32:36.924Z,98.30
2023-09-12T17:35:05.258Z,98.60
2023-09-12T17:37:34.569Z,99.00
2023-09-12T17:40:02.831Z,99.30
2023-09-12T17:42:31.948Z,99.30
2023-09-12T17:44:59.983Z,99.90
2023-09-12T17:47:28.125Z,99.90
2023-09-12T17:49:57.383Z,99.90
2023-09-12T17:52:25.508Z,99.90
2023-09-12T17:54:54.966Z,99.90
2023-09-12T17:57:23.001Z,99.90
2023-09-12T17:59:52.163Z,99.90
2023-09-12T18:02:20.250Z,99.90
2023-09-12T18:04:48.319Z,99.90
2023-09-12T18:07:17.750Z,99.90
2023-09-12T18:09:46.833Z,99.90
2023-09-12T18:12:16.406Z,99.90
2023-09-12T18:14:44.334Z,99.90
2023-09-12T18:17:12.490Z,99.90
2023-09-12T18:19:40.584Z,99.90
2023-09-12T18:22:08.542Z,99.90
2023-09-12T18:24:36.606Z,99.90
2023-09-12T18:27:04.791Z,99.90
2023-09-12T18:29:34.150Z,99.90
2023-09-12T18:32:02.185Z,99.90
2023-09-12T18:34:30.115Z,99.90
2023-09-12T18:36:58.118Z,99.90
2023-09-12T18:39:26.480Z,99.90
2023-09-12T18:41:54.365Z,99.90
2023-09-12T18:44:24.532Z,99.90
2023-09-12T18:46:54.131Z,99.90
2023-09-12T18:49:22.221Z,99.90
2023-09-12T18:51:51.224Z,99.90
2023-09-12T18:54:22.707Z,99.90
2023-09-12T18:56:51.604Z,99.90
2023-09-12T18:59:19.804Z,99.90
2023-09-12T19:01:47.798Z,99.90
2023-09-12T19:04:27.793Z,99.90
2023-09-12T19:06:56.511Z,99.90
2023-09-12T19:09:24.722Z,99.90
2023-09-12T19:11:53.859Z,99.90
2023-09-12T19:14:21.781Z,99.90
2023-09-12T19:16:54.135Z,99.90
2023-09-12T19:19:22.266Z,99.90
2023-09-12T19:21:51.800Z,99.90
2023-09-12T19:24:19.822Z,99.90
2023-09-12T19:26:49.117Z,99.90
2023-09-12T19:29:17.763Z,99.90
2023-09-12T19:31:45.963Z,99.90
2023-09-12T19:34:14.111Z,99.90
2023-09-12T19:36:42.307Z,99.90
2023-09-12T19:39:11.581Z,99.90
2023-09-12T19:41:39.550Z,99.90
2023-09-12T19:44:08.050Z,99.90
2023-09-12T19:46:40.906Z,99.90
2023-09-12T19:49:09.967Z,99.90
2023-09-12T19:51:38.029Z,99.90
2023-09-12T19:54:06.111Z,99.90
2023-09-12T19:56:35.646Z,99.90
2023-09-12T19:59:03.532Z,99.90
2023-09-12T20:01:31.473Z,99.90
2023-09-12T20:03:59.792Z,99.90
2023-09-12T20:06:27.842Z,99.90
2023-09-12T20:08:55.772Z,99.90
2023-09-12T20:11:23.733Z,99.90
2023-09-12T20:13:52.970Z,99.90
2023-09-12T20:16:22.298Z,99.90
2023-09-12T20:18:50.347Z,99.90
2023-09-12T20:21:19.176Z,99.90
2023-09-12T20:23:47.072Z,99.90
2023-09-12T20:26:15.004Z,99.90
2023-09-12T20:28:42.937Z,99.90
2023-09-12T20:31:12.724Z,99.90
2023-09-12T20:33:40.739Z,99.90
2023-09-12T20:36:09.056Z,99.90
2023-09-12T20:38:36.949Z,99.90
2023-09-12T20:41:04.842Z,99.90
2023-09-12T20:43:33.263Z,99.90
2023-09-12T20:46:01.246Z,99.90
2023-09-12T20:48:32.718Z,99.90
2023-09-12T20:51:01.166Z,99.90
2023-09-12T20:53:29.428Z,99.90
2023-09-12T20:55:57.338Z,99.90
2023-09-12T20:58:25.205Z,99.90
2023-09-12T21:00:53.165Z,99.90
2023-09-12T21:03:21.415Z,99.90
2023-09-12T21:05:50.732Z,99.90
2023-09-12T21:08:20.034Z,99.90
2023-09-12T21:10:48.529Z,99.90
2023-09-12T21:13:17.756Z,99.90
2023-09-12T21:15:46.329Z,99.90
2023-09-12T21:18:14.413Z,99.90
2023-09-12T21:20:42.329Z,99.90
2023-09-12T21:23:11.552Z,99.90
2023-09-12T21:25:39.468Z,99.90
2023-09-12T21:28:07.693Z,99.90
2023-09-12T21:30:35.855Z,99.90
2023-09-12T21:33:02.913Z,99.90
2023-09-12T21:35:31.995Z,99.90
2023-09-12T21:37:59.925Z,99.90
2023-09-12T21:40:30.029Z,99.90
2023-09-12T21:42:57.949Z,99.90
2023-09-12T21:45:25.942Z,99.90
2023-09-12T21:47:53.943Z,99.90
2023-09-12T21:50:21.985Z,99.90
2023-09-12T21:52:49.949Z,99.90
2023-09-12T21:55:17.882Z,99.90
2023-09-12T21:57:47.213Z,99.90
